sensor_id;sensor_type;location;lat;lon;timestamp;pressure;altitude;pressure_sealevel;temperature;humidity
72612;BME280;60655;52.182;4.474;2022-07-22T00:00:13;102290.94;;;17.98;68.63
72612;BME280;60655;52.182;4.474;2022-07-22T00:02:14;102296.13;;;18.11;68.59
72612;BME280;60655;52.182;4.474;2022-07-22T00:04:15;102289.56;;;18.07;68.16
72612;BME280;60655;52.182;4.474;2022-07-22T00:06:17;102291.88;;;18.04;67.65
72612;BME280;60655;52.182;4.474;2022-07-22T00:08:18;102300.31;;;18.07;67.87
72612;BME280;60655;52.182;4.474;2022-07-22T00:10:19;102292.13;;;18.02;68.16
72612;BME280;60655;52.182;4.474;2022-07-22T00:12:20;102288.22;;;17.86;68.37
72612;BME280;60655;52.182;4.474;2022-07-22T00:14:21;102291.38;;;17.95;69.20
72612;BME280;60655;52.182;4.474;2022-07-22T00:16:22;102282.88;;;17.98;68.53
72612;BME280;60655;52.182;4.474;2022-07-22T00:18:23;102287.56;;;18.03;68.59
72612;BME280;60655;52.182;4.474;2022-07-22T00:20:24;102297.94;;;17.99;68.75
72612;BME280;60655;52.182;4.474;2022-07-22T00:22:25;102287.88;;;17.95;67.36
72612;BME280;60655;52.182;4.474;2022-07-22T00:24:26;102289.38;;;17.91;68.25
72612;BME280;60655;52.182;4.474;2022-07-22T00:26:27;102287.56;;;18.03;68.36
72612;BME280;60655;52.182;4.474;2022-07-22T00:28:28;102285.81;;;18.08;68.47
72612;BME280;60655;52.182;4.474;2022-07-22T00:30:29;102282.81;;;18.16;68.53
72612;BME280;60655;52.182;4.474;2022-07-22T00:32:30;102280.91;;;18.05;67.82
72612;BME280;60655;52.182;4.474;2022-07-22T00:34:31;102283.72;;;18.10;68.39
72612;BME280;60655;52.182;4.474;2022-07-22T00:36:32;102275.38;;;18.00;67.95
72612;BME280;60655;52.182;4.474;2022-07-22T00:38:33;102278.81;;;18.07;68.40
72612;BME280;60655;52.182;4.474;2022-07-22T00:40:35;102278.34;;;18.10;67.63
72612;BME280;60655;52.182;4.474;2022-07-22T00:42:36;102274.16;;;18.14;67.14
72612;BME280;60655;52.182;4.474;2022-07-22T00:44:37;102281.59;;;18.01;67.48
72612;BME280;60655;52.182;4.474;2022-07-22T00:46:37;102275.97;;;18.02;67.84
72612;BME280;60655;52.182;4.474;2022-07-22T00:48:39;102285.31;;;18.00;68.12
72612;BME280;60655;52.182;4.474;2022-07-22T00:50:40;102280.09;;;18.05;66.99
72612;BME280;60655;52.182;4.474;2022-07-22T00:52:41;102271.69;;;18.13;66.35
72612;BME280;60655;52.182;4.474;2022-07-22T00:54:42;102264.19;;;18.03;67.12
72612;BME280;60655;52.182;4.474;2022-07-22T00:56:43;102272.06;;;18.16;67.21
72612;BME280;60655;52.182;4.474;2022-07-22T00:58:46;102263.03;;;18.11;67.60
72612;BME280;60655;52.182;4.474;2022-07-22T01:00:47;102259.06;;;18.13;66.96
72612;BME280;60655;52.182;4.474;2022-07-22T01:02:48;102264.06;;;18.10;66.59
72612;BME280;60655;52.182;4.474;2022-07-22T01:04:49;102255.28;;;18.03;67.38
72612;BME280;60655;52.182;4.474;2022-07-22T01:06:50;102251.69;;;18.09;67.20
72612;BME280;60655;52.182;4.474;2022-07-22T01:08:51;102257.53;;;18.06;67.36
72612;BME280;60655;52.182;4.474;2022-07-22T01:10:52;102251.56;;;18.04;68.11
72612;BME280;60655;52.182;4.474;2022-07-22T01:12:52;102257.38;;;18.01;67.96
72612;BME280;60655;52.182;4.474;2022-07-22T01:14:53;102257.16;;;18.02;68.06
72612;BME280;60655;52.182;4.474;2022-07-22T01:16:54;102255.56;;;18.13;67.71
72612;BME280;60655;52.182;4.474;2022-07-22T01:18:55;102254.00;;;18.05;68.35
72612;BME280;60655;52.182;4.474;2022-07-22T01:21:03;102259.06;;;18.13;68.14
72612;BME280;60655;52.182;4.474;2022-07-22T01:23:06;102253.19;;;18.05;68.01
72612;BME280;60655;52.182;4.474;2022-07-22T01:25:07;102260.34;;;18.11;68.25
72612;BME280;60655;52.182;4.474;2022-07-22T01:27:08;102254.56;;;17.96;68.50
72612;BME280;60655;52.182;4.474;2022-07-22T01:29:09;102254.56;;;17.96;68.91
72612;BME280;60655;52.182;4.474;2022-07-22T01:31:10;102259.25;;;18.00;68.74
72612;BME280;60655;52.182;4.474;2022-07-22T01:33:11;102253.19;;;18.05;68.25
72612;BME280;60655;52.182;4.474;2022-07-22T01:35:12;102251.31;;;18.05;68.31
72612;BME280;60655;52.182;4.474;2022-07-22T01:37:13;102255.56;;;18.13;68.02
72612;BME280;60655;52.182;4.474;2022-07-22T01:39:14;102252.28;;;18.11;68.14
72612;BME280;60655;52.182;4.474;2022-07-22T01:41:15;102246.53;;;18.07;67.97
72612;BME280;60655;52.182;4.474;2022-07-22T01:43:16;102242.91;;;18.13;67.98
72612;BME280;60655;52.182;4.474;2022-07-22T01:45:18;102252.81;;;18.01;67.43
72612;BME280;60655;52.182;4.474;2022-07-22T01:47:19;102251.31;;;18.05;67.90
72612;BME280;60655;52.182;4.474;2022-07-22T01:49:20;102241.47;;;17.99;67.91
72612;BME280;60655;52.182;4.474;2022-07-22T01:51:22;102243.03;;;18.07;68.09
72612;BME280;60655;52.182;4.474;2022-07-22T01:53:23;102257.41;;;18.12;67.81
72612;BME280;60655;52.182;4.474;2022-07-22T01:55:24;102245.47;;;18.08;66.90
72612;BME280;60655;52.182;4.474;2022-07-22T01:57:25;102248.16;;;18.08;65.94
72612;BME280;60655;52.182;4.474;2022-07-22T01:59:26;102241.03;;;18.02;66.43
72612;BME280;60655;52.182;4.474;2022-07-22T02:01:27;102242.91;;;18.02;66.91
72612;BME280;60655;52.182;4.474;2022-07-22T02:03:28;102241.72;;;17.98;66.87
72612;BME280;60655;52.182;4.474;2022-07-22T02:05:29;102241.25;;;18.01;66.94
72612;BME280;60655;52.182;4.474;2022-07-22T02:07:31;102251.19;;;18.00;66.64
72612;BME280;60655;52.182;4.474;2022-07-22T02:09:32;102249.44;;;18.06;66.38
72612;BME280;60655;52.182;4.474;2022-07-22T02:11:33;102244.41;;;17.98;66.57
72612;BME280;60655;52.182;4.474;2022-07-22T02:13:34;102241.34;;;17.94;66.40
72612;BME280;60655;52.182;4.474;2022-07-22T02:15:35;102216.91;;;17.96;67.00
72612;BME280;60655;52.182;4.474;2022-07-22T02:17:36;102241.84;;;18.03;67.32
72612;BME280;60655;52.182;4.474;2022-07-22T02:19:37;102242.31;;;18.00;67.62
72612;BME280;60655;52.182;4.474;2022-07-22T02:21:38;102236.47;;;18.03;67.74
72612;BME280;60655;52.182;4.474;2022-07-22T02:23:39;102233.28;;;17.94;67.76
72612;BME280;60655;52.182;4.474;2022-07-22T02:25:41;102247.34;;;18.08;67.56
72612;BME280;60655;52.182;4.474;2022-07-22T02:27:42;102244.41;;;17.98;67.88
72612;BME280;60655;52.182;4.474;2022-07-22T02:29:43;102240.53;;;17.94;68.38
72612;BME280;60655;52.182;4.474;2022-07-22T02:31:44;102242.06;;;18.01;68.60
72612;BME280;60655;52.182;4.474;2022-07-22T02:33:46;102240.09;;;18.08;67.02
72612;BME280;60655;52.182;4.474;2022-07-22T02:35:47;102242.66;;;18.03;67.37
72612;BME280;60655;52.182;4.474;2022-07-22T02:37:48;102234.00;;;18.01;68.16
72612;BME280;60655;52.182;4.474;2022-07-22T02:39:49;102238.91;;;18.04;68.52
72612;BME280;60655;52.182;4.474;2022-07-22T02:41:50;102234.38;;;18.05;68.05
72612;BME280;60655;52.182;4.474;2022-07-22T02:43:51;102237.63;;;17.95;68.40
72612;BME280;60655;52.182;4.474;2022-07-22T02:45:54;102236.06;;;17.76;68.73
72612;BME280;60655;52.182;4.474;2022-07-22T02:47:56;102237.25;;;17.80;68.44
72612;BME280;60655;52.182;4.474;2022-07-22T02:49:57;102235.28;;;17.87;69.02
72612;BME280;60655;52.182;4.474;2022-07-22T02:51:58;102229.78;;;17.94;68.55
72612;BME280;60655;52.182;4.474;2022-07-22T02:53:59;102229.78;;;17.94;69.08
72612;BME280;60655;52.182;4.474;2022-07-22T02:56:00;102227.53;;;17.79;68.80
72612;BME280;60655;52.182;4.474;2022-07-22T02:58:08;102236.78;;;17.83;68.29
72612;BME280;60655;52.182;4.474;2022-07-22T03:00:10;102228.03;;;17.87;68.19
72612;BME280;60655;52.182;4.474;2022-07-22T03:02:12;102225.94;;;17.90;67.94
72612;BME280;60655;52.182;4.474;2022-07-22T03:04:13;102222.53;;;17.82;68.22
72612;BME280;60655;52.182;4.474;2022-07-22T03:06:14;102227.69;;;17.96;67.78
72612;BME280;60655;52.182;4.474;2022-07-22T03:08:15;102224.44;;;18.05;67.64
72612;BME280;60655;52.182;4.474;2022-07-22T03:10:16;102225.22;;;17.94;67.37
72612;BME280;60655;52.182;4.474;2022-07-22T03:12:17;102223.56;;;17.93;68.16
72612;BME280;60655;52.182;4.474;2022-07-22T03:14:18;102228.84;;;17.88;68.15
72612;BME280;60655;52.182;4.474;2022-07-22T03:16:19;102239.59;;;17.88;68.16
72612;BME280;60655;52.182;4.474;2022-07-22T03:18:20;102228.34;;;17.79;67.63
72612;BME280;60655;52.182;4.474;2022-07-22T03:20:21;102231.31;;;17.90;68.22
72612;BME280;60655;52.182;4.474;2022-07-22T03:22:22;102227.44;;;17.97;68.56
72612;BME280;60655;52.182;4.474;2022-07-22T03:24:23;102229.31;;;17.97;68.85
72612;BME280;60655;52.182;4.474;2022-07-22T03:26:24;102230.00;;;17.92;68.20
72612;BME280;60655;52.182;4.474;2022-07-22T03:28:25;102221.78;;;17.75;67.77
72612;BME280;60655;52.182;4.474;2022-07-22T03:30:28;102222.88;;;17.86;68.38
72612;BME280;60655;52.182;4.474;2022-07-22T03:32:29;102224.25;;;17.77;68.99
72612;BME280;60655;52.182;4.474;2022-07-22T03:34:30;102222.53;;;17.82;68.59
72612;BME280;60655;52.182;4.474;2022-07-22T03:36:31;102228.72;;;17.83;68.05
72612;BME280;60655;52.182;4.474;2022-07-22T03:38:33;102224.97;;;17.84;68.33
72612;BME280;60655;52.182;4.474;2022-07-22T03:40:34;102223.34;;;17.83;68.29
72612;BME280;60655;52.182;4.474;2022-07-22T03:42:35;102223.69;;;17.86;68.48
72612;BME280;60655;52.182;4.474;2022-07-22T03:44:36;102225.91;;;17.78;68.96
72612;BME280;60655;52.182;4.474;2022-07-22T03:46:37;102231.63;;;17.81;68.99
72612;BME280;60655;52.182;4.474;2022-07-22T03:48:38;102227.44;;;17.85;68.87
72612;BME280;60655;52.182;4.474;2022-07-22T03:50:39;102225.44;;;17.81;68.87
72612;BME280;60655;52.182;4.474;2022-07-22T03:52:40;102215.25;;;17.71;68.63
72612;BME280;60655;52.182;4.474;2022-07-22T03:54:42;102228.97;;;17.63;68.08
72612;BME280;60655;52.182;4.474;2022-07-22T03:56:43;102219.75;;;17.59;67.00
72612;BME280;60655;52.182;4.474;2022-07-22T03:58:44;102229.03;;;17.75;66.97
72612;BME280;60655;52.182;4.474;2022-07-22T04:00:45;102216.06;;;17.72;67.25
72612;BME280;60655;52.182;4.474;2022-07-22T04:02:46;102226.34;;;17.75;66.57
72612;BME280;60655;52.182;4.474;2022-07-22T04:04:47;102220.91;;;17.63;66.84
72612;BME280;60655;52.182;4.474;2022-07-22T04:06:47;102230.81;;;17.81;66.54
72612;BME280;60655;52.182;4.474;2022-07-22T04:08:48;102228.81;;;17.76;66.86
72612;BME280;60655;52.182;4.474;2022-07-22T04:10:49;102223.31;;;17.71;67.22
72612;BME280;60655;52.182;4.474;2022-07-22T04:12:50;102226.94;;;17.77;66.38
72612;BME280;60655;52.182;4.474;2022-07-22T04:14:51;102224.84;;;17.79;67.25
72612;BME280;60655;52.182;4.474;2022-07-22T04:16:52;102228.09;;;17.69;68.04
72612;BME280;60655;52.182;4.474;2022-07-22T04:18:53;102214.06;;;17.67;68.03
72612;BME280;60655;52.182;4.474;2022-07-22T04:20:54;102236.75;;;17.71;68.10
72612;BME280;60655;52.182;4.474;2022-07-22T04:22:55;102227.25;;;17.69;67.09
72612;BME280;60655;52.182;4.474;2022-07-22T04:24:56;102228.91;;;17.70;67.03
72612;BME280;60655;52.182;4.474;2022-07-22T04:26:57;102234.28;;;17.70;67.16
72612;BME280;60655;52.182;4.474;2022-07-22T04:28:58;102237.66;;;17.65;65.84
72612;BME280;60655;52.182;4.474;2022-07-22T04:30:59;102239.72;;;17.63;68.12
72612;BME280;60655;52.182;4.474;2022-07-22T04:33:00;102233.38;;;17.76;67.81
72612;BME280;60655;52.182;4.474;2022-07-22T04:35:00;102227.09;;;17.64;68.23
72612;BME280;60655;52.182;4.474;2022-07-22T04:37:01;102217.25;;;17.76;67.96
72612;BME280;60655;52.182;4.474;2022-07-22T04:39:02;102223.53;;;17.70;67.70
72612;BME280;60655;52.182;4.474;2022-07-22T04:41:05;102223.88;;;17.73;67.21
72612;BME280;60655;52.182;4.474;2022-07-22T04:43:06;102224.84;;;17.79;67.46
72612;BME280;60655;52.182;4.474;2022-07-22T04:45:07;102225.44;;;17.63;66.34
72612;BME280;60655;52.182;4.474;2022-07-22T04:47:08;102223.38;;;17.65;65.94
72612;BME280;60655;52.182;4.474;2022-07-22T04:49:09;102225.44;;;17.81;66.67
72612;BME280;60655;52.182;4.474;2022-07-22T04:51:10;102224.63;;;17.80;67.45
72612;BME280;60655;52.182;4.474;2022-07-22T04:53:11;102225.44;;;17.81;67.67
72612;BME280;60655;52.182;4.474;2022-07-22T04:55:12;102220.75;;;17.76;67.81
72612;BME280;60655;52.182;4.474;2022-07-22T04:57:13;102222.38;;;17.77;67.85
72612;BME280;60655;52.182;4.474;2022-07-22T04:59:14;102221.34;;;17.78;68.22
72612;BME280;60655;52.182;4.474;2022-07-22T05:01:15;102223.94;;;17.85;67.63
72612;BME280;60655;52.182;4.474;2022-07-22T05:03:16;102225.41;;;17.69;68.38
72612;BME280;60655;52.182;4.474;2022-07-22T05:05:17;102231.19;;;17.84;67.62
72612;BME280;60655;52.182;4.474;2022-07-22T05:07:18;102225.34;;;17.87;67.71
72612;BME280;60655;52.182;4.474;2022-07-22T05:09:19;102232.00;;;17.85;67.70
72612;BME280;60655;52.182;4.474;2022-07-22T05:11:20;102231.88;;;17.80;67.81
72612;BME280;60655;52.182;4.474;2022-07-22T05:13:21;102230.91;;;17.74;67.43
72612;BME280;60655;52.182;4.474;2022-07-22T05:15:22;102230.22;;;17.91;67.51
72612;BME280;60655;52.182;4.474;2022-07-22T05:17:22;102211.72;;;17.71;66.98
72612;BME280;60655;52.182;4.474;2022-07-22T05:19:23;102227.06;;;17.82;67.53
72612;BME280;60655;52.182;4.474;2022-07-22T05:21:24;102225.34;;;17.87;68.09
72612;BME280;60655;52.182;4.474;2022-07-22T05:23:25;102219.94;;;17.76;68.47
72612;BME280;60655;52.182;4.474;2022-07-22T05:25:26;102216.69;;;17.97;67.81
72612;BME280;60655;52.182;4.474;2022-07-22T05:27:27;102225.69;;;17.91;67.90
72612;BME280;60655;52.182;4.474;2022-07-22T05:29:28;102218.09;;;18.00;67.78
72612;BME280;60655;52.182;4.474;2022-07-22T05:31:29;102216.22;;;18.00;68.21
72612;BME280;60655;52.182;4.474;2022-07-22T05:33:31;102206.03;;;17.79;67.98
72612;BME280;60655;52.182;4.474;2022-07-22T05:35:31;102224.41;;;17.94;68.32
72612;BME280;60655;52.182;4.474;2022-07-22T05:37:32;102228.84;;;18.00;68.18
72612;BME280;60655;52.182;4.474;2022-07-22T05:39:33;102223.50;;;18.11;68.00
72612;BME280;60655;52.182;4.474;2022-07-22T05:41:34;102234.00;;;18.01;68.39
72612;BME280;60655;52.182;4.474;2022-07-22T05:43:36;102220.91;;;18.05;68.32
72612;BME280;60655;52.182;4.474;2022-07-22T05:45:36;102216.38;;;18.17;67.62
72612;BME280;60655;52.182;4.474;2022-07-22T05:47:37;102214.97;;;18.14;68.23
72612;BME280;60655;52.182;4.474;2022-07-22T05:49:38;102222.78;;;18.04;68.13
72612;BME280;60655;52.182;4.474;2022-07-22T05:51:39;102210.06;;;18.11;68.07
72612;BME280;60655;52.182;4.474;2022-07-22T05:53:41;102219.63;;;18.07;67.47
72612;BME280;60655;52.182;4.474;2022-07-22T05:55:43;102217.75;;;18.19;67.27
72612;BME280;60655;52.182;4.474;2022-07-22T05:57:44;102236.13;;;18.22;66.86
72612;BME280;60655;52.182;4.474;2022-07-22T05:59:45;102229.94;;;18.10;67.34
72612;BME280;60655;52.182;4.474;2022-07-22T06:01:46;102231.47;;;18.18;67.19
72612;BME280;60655;52.182;4.474;2022-07-22T06:03:47;102217.06;;;18.12;66.82
72612;BME280;60655;52.182;4.474;2022-07-22T06:05:48;102227.94;;;18.06;66.42
72612;BME280;60655;52.182;4.474;2022-07-22T06:07:49;102221.38;;;18.02;66.85
72612;BME280;60655;52.182;4.474;2022-07-22T06:09:50;102216.69;;;17.97;67.65
72612;BME280;60655;52.182;4.474;2022-07-22T06:11:51;102228.50;;;17.96;67.72
72612;BME280;60655;52.182;4.474;2022-07-22T06:13:51;102227.81;;;18.01;67.81
72612;BME280;60655;52.182;4.474;2022-07-22T06:15:54;102224.56;;;18.10;67.43
72612;BME280;60655;52.182;4.474;2022-07-22T06:17:54;102220.06;;;17.81;67.29
72612;BME280;60655;52.182;4.474;2022-07-22T06:19:55;102222.78;;;18.04;67.53
72612;BME280;60655;52.182;4.474;2022-07-22T06:21:56;102218.41;;;17.80;67.84
72612;BME280;60655;52.182;4.474;2022-07-22T06:23:57;102219.75;;;18.01;67.99
72612;BME280;60655;52.182;4.474;2022-07-22T06:25:58;102220.19;;;17.98;67.46
72612;BME280;60655;52.182;4.474;2022-07-22T06:27:59;102220.59;;;18.13;67.68
72612;BME280;60655;52.182;4.474;2022-07-22T06:30:01;102223.16;;;18.08;67.09
72612;BME280;60655;52.182;4.474;2022-07-22T06:32:02;102227.13;;;18.05;67.71
72612;BME280;60655;52.182;4.474;2022-07-22T06:34:03;102224.91;;;18.26;67.46
72612;BME280;60655;52.182;4.474;2022-07-22T06:36:07;102224.44;;;18.17;67.42
72612;BME280;60655;52.182;4.474;2022-07-22T06:38:08;102229.94;;;18.10;67.42
72612;BME280;60655;52.182;4.474;2022-07-22T06:40:10;102224.69;;;18.15;67.32
72612;BME280;60655;52.182;4.474;2022-07-22T06:42:11;102223.13;;;18.19;67.42
72612;BME280;60655;52.182;4.474;2022-07-22T06:44:12;102231.69;;;18.16;66.92
72612;BME280;60655;52.182;4.474;2022-07-22T06:46:14;102223.69;;;17.86;67.45
72612;BME280;60655;52.182;4.474;2022-07-22T06:48:15;102224.66;;;18.04;66.93
72612;BME280;60655;52.182;4.474;2022-07-22T06:50:16;102215.66;;;18.10;66.75
72612;BME280;60655;52.182;4.474;2022-07-22T06:52:17;102231.69;;;18.05;66.64
72612;BME280;60655;52.182;4.474;2022-07-22T06:54:18;102230.28;;;18.14;67.17
72612;BME280;60655;52.182;4.474;2022-07-22T06:56:19;102232.28;;;18.18;67.34
72612;BME280;60655;52.182;4.474;2022-07-22T06:58:20;102223.84;;;18.27;66.47
72612;BME280;60655;52.182;4.474;2022-07-22T07:00:21;102221.19;;;18.15;65.71
72612;BME280;60655;52.182;4.474;2022-07-22T07:02:22;102229.34;;;18.08;66.12
72612;BME280;60655;52.182;4.474;2022-07-22T07:04:23;102225.84;;;18.08;65.94
72612;BME280;60655;52.182;4.474;2022-07-22T07:06:24;102226.44;;;18.10;66.20
72612;BME280;60655;52.182;4.474;2022-07-22T07:08:25;102222.47;;;18.12;66.80
72612;BME280;60655;52.182;4.474;2022-07-22T07:10:26;102227.16;;;18.17;66.17
72612;BME280;60655;52.182;4.474;2022-07-22T07:12:27;102236.63;;;18.31;66.06
72612;BME280;60655;52.182;4.474;2022-07-22T07:14:28;102231.22;;;18.31;65.20
72612;BME280;60655;52.182;4.474;2022-07-22T07:16:29;102242.69;;;18.38;65.76
72612;BME280;60655;52.182;4.474;2022-07-22T07:18:30;102237.31;;;18.38;65.11
72612;BME280;60655;52.182;4.474;2022-07-22T07:20:31;102236.50;;;18.38;64.82
72612;BME280;60655;52.182;4.474;2022-07-22T07:22:32;102236.28;;;18.39;65.14
72612;BME280;60655;52.182;4.474;2022-07-22T07:24:33;102241.41;;;18.41;65.20
72612;BME280;60655;52.182;4.474;2022-07-22T07:26:34;102232.53;;;18.40;64.08
72612;BME280;60655;52.182;4.474;2022-07-22T07:28:35;102233.78;;;18.26;64.12
72612;BME280;60655;52.182;4.474;2022-07-22T07:30:36;102231.22;;;18.31;65.25
72612;BME280;60655;52.182;4.474;2022-07-22T07:32:38;102234.16;;;18.30;65.19
72612;BME280;60655;52.182;4.474;2022-07-22T07:34:39;102230.19;;;18.44;65.28
72612;BME280;60655;52.182;4.474;2022-07-22T07:36:40;102228.66;;;18.36;63.39
72612;BME280;60655;52.182;4.474;2022-07-22T07:38:41;102230.88;;;18.51;63.23
72612;BME280;60655;52.182;4.474;2022-07-22T07:40:42;102222.22;;;18.49;63.72
72612;BME280;60655;52.182;4.474;2022-07-22T07:42:43;102227.41;;;18.62;64.05
72612;BME280;60655;52.182;4.474;2022-07-22T07:44:44;102228.91;;;18.46;63.41
72612;BME280;60655;52.182;4.474;2022-07-22T07:46:45;102231.94;;;18.50;64.17
72612;BME280;60655;52.182;4.474;2022-07-22T07:48:46;102231.69;;;18.51;64.44
72612;BME280;60655;52.182;4.474;2022-07-22T07:50:49;102235.34;;;18.45;63.05
72612;BME280;60655;52.182;4.474;2022-07-22T07:52:50;102234.72;;;18.55;63.38
72612;BME280;60655;52.182;4.474;2022-07-22T07:54:51;102242.97;;;18.60;63.66
72612;BME280;60655;52.182;4.474;2022-07-22T07:56:53;102233.59;;;18.74;62.58
72612;BME280;60655;52.182;4.474;2022-07-22T07:58:54;102238.47;;;18.77;62.14
72612;BME280;60655;52.182;4.474;2022-07-22T08:00:55;102230.31;;;18.72;61.93
72612;BME280;60655;52.182;4.474;2022-07-22T08:02:56;102225.03;;;18.77;61.64
72612;BME280;60655;52.182;4.474;2022-07-22T08:04:57;102223.41;;;18.65;61.55
72612;BME280;60655;52.182;4.474;2022-07-22T08:06:58;102210.41;;;18.73;61.70
72612;BME280;60655;52.182;4.474;2022-07-22T08:08:59;102207.81;;;18.78;61.49
72612;BME280;60655;52.182;4.474;2022-07-22T08:11:00;102212.72;;;18.93;59.45
72612;BME280;60655;52.182;4.474;2022-07-22T08:13:02;102211.91;;;18.93;59.06
72612;BME280;60655;52.182;4.474;2022-07-22T08:15:03;102204.97;;;18.97;59.76
72612;BME280;60655;52.182;4.474;2022-07-22T08:17:04;102211.06;;;19.04;60.84
72612;BME280;60655;52.182;4.474;2022-07-22T08:19:05;102207.31;;;19.05;61.16
72612;BME280;60655;52.182;4.474;2022-07-22T08:21:06;102196.59;;;19.10;60.26
72612;BME280;60655;52.182;4.474;2022-07-22T08:23:07;102206.22;;;19.06;60.07
72612;BME280;60655;52.182;4.474;2022-07-22T08:25:08;102207.78;;;19.02;58.06
72612;BME280;60655;52.182;4.474;2022-07-22T08:27:09;102208.00;;;19.00;59.01
72612;BME280;60655;52.182;4.474;2022-07-22T08:29:10;102205.44;;;18.94;59.75
72612;BME280;60655;52.182;4.474;2022-07-22T08:31:11;102187.84;;;18.74;58.88
72612;BME280;60655;52.182;4.474;2022-07-22T08:33:12;102203.22;;;18.91;58.89
72612;BME280;60655;52.182;4.474;2022-07-22T08:35:13;102206.28;;;18.94;60.16
72612;BME280;60655;52.182;4.474;2022-07-22T08:37:14;102203.44;;;19.01;60.20
72612;BME280;60655;52.182;4.474;2022-07-22T08:39:15;102198.13;;;18.66;59.69
72612;BME280;60655;52.182;4.474;2022-07-22T08:41:17;102196.00;;;18.79;59.35
72612;BME280;60655;52.182;4.474;2022-07-22T08:43:19;102187.25;;;18.72;59.23
72612;BME280;60655;52.182;4.474;2022-07-22T08:45:20;102185.38;;;18.61;58.92
72612;BME280;60655;52.182;4.474;2022-07-22T08:47:22;102190.41;;;18.69;58.66
72612;BME280;60655;52.182;4.474;2022-07-22T08:49:23;102195.28;;;18.84;58.60
72612;BME280;60655;52.182;4.474;2022-07-22T08:51:24;102189.28;;;18.94;58.99
72612;BME280;60655;52.182;4.474;2022-07-22T08:53:25;102199.00;;;18.95;59.57
72612;BME280;60655;52.182;4.474;2022-07-22T08:55:26;102204.63;;;19.05;60.67
72612;BME280;60655;52.182;4.474;2022-07-22T08:57:27;102203.94;;;18.86;60.35
72612;BME280;60655;52.182;4.474;2022-07-22T08:59:29;102206.50;;;18.93;60.70
72612;BME280;60655;52.182;4.474;2022-07-22T09:01:30;102196.91;;;18.85;60.87
72612;BME280;60655;52.182;4.474;2022-07-22T09:03:31;102195.03;;;18.85;60.21
72612;BME280;60655;52.182;4.474;2022-07-22T09:05:33;102184.66;;;19.06;59.36
72612;BME280;60655;52.182;4.474;2022-07-22T09:07:38;102192.44;;;19.02;59.96
72612;BME280;60655;52.182;4.474;2022-07-22T09:09:41;102190.69;;;18.96;60.36
72612;BME280;60655;52.182;4.474;2022-07-22T09:11:42;102193.38;;;18.96;60.95
72612;BME280;60655;52.182;4.474;2022-07-22T09:13:45;102185.41;;;19.01;60.11
72612;BME280;60655;52.182;4.474;2022-07-22T09:15:49;102188.34;;;19.00;60.09
72612;BME280;60655;52.182;4.474;2022-07-22T09:17:50;102184.13;;;19.04;60.26
72612;BME280;60655;52.182;4.474;2022-07-22T09:19:52;102187.66;;;18.93;59.84
72612;BME280;60655;52.182;4.474;2022-07-22T09:21:53;102182.75;;;18.89;60.39
72612;BME280;60655;52.182;4.474;2022-07-22T09:23:54;102173.72;;;18.96;60.17
72612;BME280;60655;52.182;4.474;2022-07-22T09:25:55;102185.00;;;19.09;59.26
72612;BME280;60655;52.182;4.474;2022-07-22T09:30:22;102177.59;;;18.88;60.05
72612;BME280;60655;52.182;4.474;2022-07-22T09:32:23;102187.75;;;18.98;59.12
72612;BME280;60655;52.182;4.474;2022-07-22T09:34:29;102195.03;;;18.97;59.37
72612;BME280;60655;52.182;4.474;2022-07-22T09:36:54;102196.72;;;19.15;59.44
72612;BME280;60655;52.182;4.474;2022-07-22T09:38:56;102204.31;;;19.18;59.48
72612;BME280;60655;52.182;4.474;2022-07-22T09:40:57;102196.81;;;19.20;59.26
72612;BME280;60655;52.182;4.474;2022-07-22T09:43:00;102194.66;;;19.34;58.14
72612;BME280;60655;52.182;4.474;2022-07-22T09:45:02;102187.41;;;19.34;58.92
72612;BME280;60655;52.182;4.474;2022-07-22T09:47:03;102186.06;;;19.37;57.42
72612;BME280;60655;52.182;4.474;2022-07-22T09:49:04;102207.22;;;19.57;57.87
72612;BME280;60655;52.182;4.474;2022-07-22T09:51:05;102201.38;;;19.60;57.02
72612;BME280;60655;52.182;4.474;2022-07-22T09:53:06;102204.31;;;19.75;57.11
72612;BME280;60655;52.182;4.474;2022-07-22T09:55:08;102206.28;;;19.79;56.92
72612;BME280;60655;52.182;4.474;2022-07-22T09:57:09;102205.03;;;19.53;54.38
72612;BME280;60655;52.182;4.474;2022-07-22T09:59:10;102210.53;;;19.47;56.16
72612;BME280;60655;52.182;4.474;2022-07-22T10:01:11;102202.75;;;19.62;54.37
72612;BME280;60655;52.182;4.474;2022-07-22T10:03:18;102210.66;;;19.40;54.94
72612;BME280;60655;52.182;4.474;2022-07-22T10:05:25;102204.63;;;19.33;55.26
72612;BME280;60655;52.182;4.474;2022-07-22T10:07:27;102203.88;;;19.38;55.78
72612;BME280;60655;52.182;4.474;2022-07-22T10:09:29;102205.84;;;19.42;55.97
72612;BME280;60655;52.182;4.474;2022-07-22T10:11:31;102213.78;;;19.61;56.18
72612;BME280;60655;52.182;4.474;2022-07-22T10:13:32;102218.38;;;19.48;55.19
72612;BME280;60655;52.182;4.474;2022-07-22T10:15:36;102219.19;;;19.49;54.70
72612;BME280;60655;52.182;4.474;2022-07-22T10:17:39;102210.41;;;19.53;54.52
72612;BME280;60655;52.182;4.474;2022-07-22T10:19:41;102216.63;;;19.54;56.19
72612;BME280;60655;52.182;4.474;2022-07-22T10:21:42;102209.69;;;19.75;54.49
72612;BME280;60655;52.182;4.474;2022-07-22T10:24:15;102202.53;;;19.80;54.89
72612;BME280;60655;52.182;4.474;2022-07-22T10:26:19;102211.66;;;19.79;52.63
72612;BME280;60655;52.182;4.474;2022-07-22T10:28:32;102211.91;;;19.78;54.01
72612;BME280;60655;52.182;4.474;2022-07-22T10:30:35;102203.34;;;19.81;54.75
72612;BME280;60655;52.182;4.474;2022-07-22T10:32:36;102215.13;;;19.92;53.33
72612;BME280;60655;52.182;4.474;2022-07-22T10:34:37;102203.25;;;19.93;54.27
72612;BME280;60655;52.182;4.474;2022-07-22T10:36:39;102213.78;;;19.94;53.79